This is the latest recevied weather packets stored in our database for station/object AD8IZ-13. If no packets are shown the sender has not sent any weather packets the latest 10 day(s).
| Time | Temp. | Humidity | Pressure | Rain* | Wind** | Luminosity | Snow |
|---|---|---|---|---|---|---|---|
| 1777940717 | 20.56° C | 64% | 1005.4 hPa | 0 mm | - | 5 W/m² | - |
| 1777940121 | 21.11° C | 62% | 1005.3 hPa | 0 mm | - | 11 W/m² | - |
| 1777939519 | 21.11° C | 61% | 1005.3 hPa | 0 mm | - | 19 W/m² | - |
| 1777938920 | 21.67° C | 61% | 1005.3 hPa | 0 mm | - | 28 W/m² | - |
| 1777938321 | 21.67° C | 60% | 1005.4 hPa | 0 mm | - | 38 W/m² | - |
| 1777937717 | 21.67° C | 60% | 1005.4 hPa | 0 mm | - | 60 W/m² | - |
| 1777937121 | 21.67° C | 60% | 1005.4 hPa | 0 mm | - | 67 W/m² | - |
| 1777936522 | 21.67° C | 60% | 1005.6 hPa | 0 mm | - | 49 W/m² | - |
| 1777935921 | 21.67° C | 60% | 1005.7 hPa | 0 mm | - | 121 W/m² | - |
| 1777935319 | 21.67° C | 60% | 1005.9 hPa | 0 mm | - | 76 W/m² | - |
| 1777934719 | 21.11° C | 62% | 1006.1 hPa | 0 mm | - | 76 W/m² | - |
| 1777934118 | 21.11° C | 62% | 1006.1 hPa | 0 mm | - | 117 W/m² | - |
| 1777933522 | 20.56° C | 63% | 1006.2 hPa | 0 mm | - | 210 W/m² | - |
| 1777932919 | 20.56° C | 64% | 1006.2 hPa | 0 mm | - | 117 W/m² | - |
| 1777932319 | 21.11° C | 63% | 1006.4 hPa | 0 mm | - | 141 W/m² | - |
| 1777931719 | 21.11° C | 63% | 1006.4 hPa | 0 mm | - | 353 W/m² | - |
| 1777931119 | 21.11° C | 62% | 1006.4 hPa | 0 mm | - | 175 W/m² | - |
| 1777930517 | 21.67° C | 62% | 1006.5 hPa | 0 mm | - | 401 W/m² | - |
| 1777929891 | 21.67° C | 62% | 1006.3 hPa | 0 mm | - | 407 W/m² | - |
| 1777929318 | 20.56° C | 64% | 1006 hPa | 0 mm | - | 330 W/m² | - |
| 1777928717 | 20.56° C | 63% | 1006.1 hPa | 0 mm | - | 196 W/m² | - |
| 1777928126 | 20.56° C | 65% | 1006.1 hPa | 0 mm | - | 144 W/m² | - |
| 1777927522 | 21.11° C | 65% | 1006.6 hPa | 0 mm | - | 147 W/m² | - |
| 1777926922 | 21.67° C | 62% | 1006.8 hPa | 0 mm | - | 121 W/m² | - |
| 1777926318 | 21.67° C | 62% | 1007.1 hPa | 0 mm | - | 277 W/m² | - |
* Rain latest hour (hover to see other rain measurements)
** Current wind speed in m/s (hover to see current wind gust speed)